sensor_id;sensor_type;location;lat;lon;timestamp;pressure;altitude;pressure_sealevel;temperature;humidity
20987;BME280;10652;50.306;8.570;2023-01-31T00:05:16;98714.50;;;2.63;93.14
20987;BME280;10652;50.306;8.570;2023-01-31T00:09:21;98718.78;;;2.72;93.43
20987;BME280;10652;50.306;8.570;2023-01-31T00:13:23;98702.34;;;2.76;93.41
20987;BME280;10652;50.306;8.570;2023-01-31T00:17:25;98710.09;;;2.79;93.52
20987;BME280;10652;50.306;8.570;2023-01-31T00:21:28;98704.00;;;2.84;93.75
20987;BME280;10652;50.306;8.570;2023-01-31T00:25:30;98697.06;;;2.86;93.40
20987;BME280;10652;50.306;8.570;2023-01-31T00:29:32;98709.19;;;2.86;93.33
20987;BME280;10652;50.306;8.570;2023-01-31T00:33:36;98708.31;;;2.88;93.83
20987;BME280;10652;50.306;8.570;2023-01-31T00:42:18;98694.44;;;2.94;93.67
20987;BME280;10652;50.306;8.570;2023-01-31T00:46:20;98695.31;;;2.93;93.43
20987;BME280;10652;50.306;8.570;2023-01-31T00:50:22;98694.50;;;2.82;93.25
20987;BME280;10652;50.306;8.570;2023-01-31T00:54:25;98697.13;;;2.73;93.81
20987;BME280;10652;50.306;8.570;2023-01-31T00:58:27;98699.81;;;2.62;94.33
20987;BME280;10652;50.306;8.570;2023-01-31T01:02:30;98699.81;;;2.61;95.09
20987;BME280;10652;50.306;8.570;2023-01-31T01:06:32;98694.66;;;2.58;95.38
20987;BME280;10652;50.306;8.570;2023-01-31T01:10:35;98696.41;;;2.53;94.81
20987;BME280;10652;50.306;8.570;2023-01-31T01:14:37;98709.41;;;2.45;95.60
20987;BME280;10652;50.306;8.570;2023-01-31T01:18:39;98709.41;;;2.45;96.29
20987;BME280;10652;50.306;8.570;2023-01-31T01:22:41;98716.28;;;2.52;98.00
20987;BME280;10652;50.306;8.570;2023-01-31T01:26:44;98711.06;;;2.58;96.55
20987;BME280;10652;50.306;8.570;2023-01-31T01:30:46;98724.91;;;2.53;96.45
20987;BME280;10652;50.306;8.570;2023-01-31T01:34:48;98724.03;;;2.55;96.57
20987;BME280;10652;50.306;8.570;2023-01-31T01:38:51;98719.75;;;2.54;96.84
20987;BME280;10652;50.306;8.570;2023-01-31T01:42:53;98718.88;;;2.52;97.59
20987;BME280;10652;50.306;8.570;2023-01-31T01:46:55;98712.84;;;2.47;97.82
20987;BME280;10652;50.306;8.570;2023-01-31T01:50:58;98712.88;;;2.38;98.71
20987;BME280;10652;50.306;8.570;2023-01-31T01:55:09;98713.78;;;2.29;98.77
20987;BME280;10652;50.306;8.570;2023-01-31T01:59:20;98725.88;;;2.24;99.61
20987;BME280;10652;50.306;8.570;2023-01-31T02:03:25;98696.56;;;2.07;99.20
20987;BME280;10652;50.306;8.570;2023-01-31T02:07:28;98705.25;;;1.94;99.98
20987;BME280;10652;50.306;8.570;2023-01-31T02:11:31;98708.69;;;1.87;100.00
20987;BME280;10652;50.306;8.570;2023-01-31T02:15:33;98709.59;;;1.86;100.00
20987;BME280;10652;50.306;8.570;2023-01-31T02:29:06;98713.88;;;1.99;100.00
20987;BME280;10652;50.306;8.570;2023-01-31T02:33:40;98710.41;;;1.97;100.00
20987;BME280;10652;50.306;8.570;2023-01-31T02:42:27;98707.00;;;1.80;100.00
20987;BME280;10652;50.306;8.570;2023-01-31T02:46:40;98701.81;;;1.74;100.00
20987;BME280;10652;50.306;8.570;2023-01-31T02:50:50;98704.41;;;1.66;100.00
20987;BME280;10652;50.306;8.570;2023-01-31T02:55:24;98707.03;;;1.58;100.00
20987;BME280;10652;50.306;8.570;2023-01-31T02:59:47;98710.47;;;1.51;100.00
20987;BME280;10652;50.306;8.570;2023-01-31T03:03:50;98724.28;;;1.44;100.00
20987;BME280;10652;50.306;8.570;2023-01-31T03:07:55;98726.00;;;1.39;100.00
20987;BME280;10652;50.306;8.570;2023-01-31T03:16:26;98732.91;;;1.27;100.00
20987;BME280;10652;50.306;8.570;2023-01-31T03:25:01;98737.22;;;1.17;100.00
20987;BME280;10652;50.306;8.570;2023-01-31T03:29:05;98754.44;;;1.15;100.00
20987;BME280;10652;50.306;8.570;2023-01-31T03:33:20;98751.88;;;1.26;100.00
20987;BME280;10652;50.306;8.570;2023-01-31T03:37:38;98760.50;;;1.50;100.00
20987;BME280;10652;50.306;8.570;2023-01-31T03:42:06;98758.78;;;1.51;100.00
20987;BME280;10652;50.306;8.570;2023-01-31T03:46:23;98749.28;;;1.42;100.00
20987;BME280;10652;50.306;8.570;2023-01-31T03:50:30;98758.78;;;1.39;100.00
20987;BME280;10652;50.306;8.570;2023-01-31T03:54:39;98766.56;;;1.40;100.00
20987;BME280;10652;50.306;8.570;2023-01-31T03:58:45;98757.06;;;1.51;100.00
20987;BME280;10652;50.306;8.570;2023-01-31T04:02:57;98755.34;;;1.53;100.00
20987;BME280;10652;50.306;8.570;2023-01-31T04:07:02;98763.97;;;1.62;100.00
20987;BME280;10652;50.306;8.570;2023-01-31T04:11:09;98763.09;;;1.73;100.00
20987;BME280;10652;50.306;8.570;2023-01-31T04:15:14;98763.09;;;1.84;100.00
20987;BME280;10652;50.306;8.570;2023-01-31T04:19:16;98750.16;;;1.93;100.00
20987;BME280;10652;50.306;8.570;2023-01-31T04:23:18;98756.19;;;1.96;99.23
20987;BME280;10652;50.306;8.570;2023-01-31T04:27:20;98746.69;;;1.97;98.39
20987;BME280;10652;50.306;8.570;2023-01-31T04:31:22;98740.66;;;1.90;97.57
20987;BME280;10652;50.306;8.570;2023-01-31T04:35:24;98735.50;;;1.81;97.40
20987;BME280;10652;50.306;8.570;2023-01-31T04:39:27;98728.59;;;1.76;97.44
20987;BME280;10652;50.306;8.570;2023-01-31T04:43:29;98717.34;;;1.69;96.96
20987;BME280;10652;50.306;8.570;2023-01-31T04:47:31;98713.91;;;1.59;96.59
20987;BME280;10652;50.306;8.570;2023-01-31T04:51:33;98717.38;;;1.48;97.01
20987;BME280;10652;50.306;8.570;2023-01-31T04:55:36;98717.38;;;1.40;97.25
20987;BME280;10652;50.306;8.570;2023-01-31T04:59:38;98715.66;;;1.30;97.53
20987;BME280;10652;50.306;8.570;2023-01-31T05:03:40;98711.31;;;1.20;97.80
20987;BME280;10652;50.306;8.570;2023-01-31T05:07:43;98716.50;;;1.12;98.45
20987;BME280;10652;50.306;8.570;2023-01-31T05:11:45;98719.94;;;1.10;98.88
20987;BME280;10652;50.306;8.570;2023-01-31T05:15:47;98719.06;;;1.05;98.92
20987;BME280;10652;50.306;8.570;2023-01-31T05:19:50;98713.88;;;1.02;99.26
20987;BME280;10652;50.306;8.570;2023-01-31T05:23:52;98710.44;;;0.97;99.24
20987;BME280;10652;50.306;8.570;2023-01-31T05:27:54;98713.03;;;0.94;99.53
20987;BME280;10652;50.306;8.570;2023-01-31T05:31:58;98712.16;;;0.92;99.64
20987;BME280;10652;50.306;8.570;2023-01-31T05:36:01;98712.16;;;0.93;100.00
20987;BME280;10652;50.306;8.570;2023-01-31T05:40:05;98707.81;;;0.91;100.00
20987;BME280;10652;50.306;8.570;2023-01-31T05:44:07;98706.09;;;0.87;99.96
20987;BME280;10652;50.306;8.570;2023-01-31T05:48:09;98703.50;;;0.84;99.78
20987;BME280;10652;50.306;8.570;2023-01-31T05:52:11;98700.06;;;0.79;99.52
20987;BME280;10652;50.306;8.570;2023-01-31T05:56:13;98696.63;;;0.77;99.48
20987;BME280;10652;50.306;8.570;2023-01-31T06:00:17;98698.31;;;0.78;99.53
20987;BME280;10652;50.306;8.570;2023-01-31T06:04:20;98697.44;;;0.77;100.00
20987;BME280;10652;50.306;8.570;2023-01-31T06:08:22;98689.72;;;0.76;99.84
20987;BME280;10652;50.306;8.570;2023-01-31T06:12:24;98691.44;;;0.75;99.99
20987;BME280;10652;50.306;8.570;2023-01-31T06:16:26;98690.56;;;0.75;100.00
20987;BME280;10652;50.306;8.570;2023-01-31T06:20:28;98682.81;;;0.81;100.00
20987;BME280;10652;50.306;8.570;2023-01-31T06:24:31;98688.84;;;0.78;100.00
20987;BME280;10652;50.306;8.570;2023-01-31T06:28:35;98695.75;;;0.84;100.00
20987;BME280;10652;50.306;8.570;2023-01-31T06:32:37;98692.31;;;0.92;100.00
20987;BME280;10652;50.306;8.570;2023-01-31T06:36:39;98688.91;;;1.02;100.00
20987;BME280;10652;50.306;8.570;2023-01-31T06:40:41;98700.97;;;1.43;100.00
20987;BME280;10652;50.306;8.570;2023-01-31T06:44:43;98707.84;;;1.89;100.00
20987;BME280;10652;50.306;8.570;2023-01-31T06:48:46;98701.75;;;2.09;100.00
20987;BME280;10652;50.306;8.570;2023-01-31T06:52:49;98701.78;;;1.98;100.00
20987;BME280;10652;50.306;8.570;2023-01-31T06:56:51;98707.84;;;1.88;100.00
20987;BME280;10652;50.306;8.570;2023-01-31T07:00:53;98706.13;;;1.90;99.86
20987;BME280;10652;50.306;8.570;2023-01-31T07:04:55;98695.75;;;1.93;98.77
20987;BME280;10652;50.306;8.570;2023-01-31T07:08:57;98702.66;;;1.92;97.37
20987;BME280;10652;50.306;8.570;2023-01-31T07:12:59;98704.38;;;1.87;96.89
20987;BME280;10652;50.306;8.570;2023-01-31T07:17:02;98710.41;;;1.92;97.80
20987;BME280;10652;50.306;8.570;2023-01-31T07:21:04;98716.47;;;1.93;97.67
20987;BME280;10652;50.306;8.570;2023-01-31T07:25:07;98711.25;;;2.00;97.91
20987;BME280;10652;50.306;8.570;2023-01-31T07:29:09;98719.00;;;2.16;97.88
20987;BME280;10652;50.306;8.570;2023-01-31T07:33:13;98713.78;;;2.29;96.78
20987;BME280;10652;50.306;8.570;2023-01-31T07:37:15;98710.28;;;2.36;95.53
20987;BME280;10652;50.306;8.570;2023-01-31T07:41:17;98698.16;;;2.41;94.01
20987;BME280;10652;50.306;8.570;2023-01-31T07:45:19;98706.78;;;2.46;92.86
20987;BME280;10652;50.306;8.570;2023-01-31T07:49:24;98701.59;;;2.50;92.90
20987;BME280;10652;50.306;8.570;2023-01-31T07:53:28;98701.63;;;2.43;91.14
20987;BME280;10652;50.306;8.570;2023-01-31T07:57:33;98704.22;;;2.39;90.52
20987;BME280;10652;50.306;8.570;2023-01-31T08:01:35;98720.66;;;2.38;89.61
20987;BME280;10652;50.306;8.570;2023-01-31T08:05:55;98718.91;;;2.44;89.52
20987;BME280;10652;50.306;8.570;2023-01-31T08:09:57;98710.25;;;2.48;89.16
20987;BME280;10652;50.306;8.570;2023-01-31T08:13:59;98717.13;;;2.56;88.93
20987;BME280;10652;50.306;8.570;2023-01-31T08:18:01;98714.53;;;2.51;88.59
20987;BME280;10652;50.306;8.570;2023-01-31T08:22:07;98715.38;;;2.55;88.66
20987;BME280;10652;50.306;8.570;2023-01-31T08:26:14;98718.84;;;2.63;89.00
20987;BME280;10652;50.306;8.570;2023-01-31T08:30:17;98714.47;;;2.66;88.87
20987;BME280;10652;50.306;8.570;2023-01-31T08:34:19;98706.66;;;2.74;89.16
20987;BME280;10652;50.306;8.570;2023-01-31T08:38:22;98705.78;;;2.75;88.30
20987;BME280;10652;50.306;8.570;2023-01-31T08:42:24;98711.78;;;2.83;88.19
20987;BME280;10652;50.306;8.570;2023-01-31T08:46:28;98711.75;;;2.95;87.55
20987;BME280;10652;50.306;8.570;2023-01-31T08:50:32;98697.78;;;3.11;87.59
20987;BME280;10652;50.306;8.570;2023-01-31T08:54:35;98684.75;;;3.20;86.26
20987;BME280;10652;50.306;8.570;2023-01-31T08:58:38;98693.28;;;3.31;85.57
20987;BME280;10652;50.306;8.570;2023-01-31T09:02:43;98706.16;;;3.45;84.25
20987;BME280;10652;50.306;8.570;2023-01-31T09:06:47;98722.53;;;3.58;84.18
20987;BME280;10652;50.306;8.570;2023-01-31T09:10:51;98731.91;;;3.74;83.34
20987;BME280;10652;50.306;8.570;2023-01-31T09:14:54;98721.56;;;3.68;80.95
20987;BME280;10652;50.306;8.570;2023-01-31T09:18:56;98704.28;;;3.64;81.03
20987;BME280;10652;50.306;8.570;2023-01-31T09:22:58;98701.63;;;3.70;81.09
20987;BME280;10652;50.306;8.570;2023-01-31T09:27:00;98701.63;;;3.71;80.00
20987;BME280;10652;50.306;8.570;2023-01-31T09:31:07;98704.22;;;3.68;79.66
20987;BME280;10652;50.306;8.570;2023-01-31T09:35:11;98707.81;;;3.58;79.22
20987;BME280;10652;50.306;8.570;2023-01-31T09:39:15;98682.75;;;3.51;80.18
20987;BME280;10652;50.306;8.570;2023-01-31T09:43:18;98681.00;;;3.50;81.27
20987;BME280;10652;50.306;8.570;2023-01-31T09:47:29;98674.03;;;3.55;81.24
20987;BME280;10652;50.306;8.570;2023-01-31T09:51:36;98669.72;;;3.57;80.57
20987;BME280;10652;50.306;8.570;2023-01-31T09:55:53;98676.59;;;3.60;80.81
20987;BME280;10652;50.306;8.570;2023-01-31T10:08:43;98689.53;;;3.67;80.92
20987;BME280;10652;50.306;8.570;2023-01-31T10:12:50;98698.16;;;3.69;80.05
20987;BME280;10652;50.306;8.570;2023-01-31T10:17:03;98675.59;;;3.73;80.62
20987;BME280;10652;50.306;8.570;2023-01-31T10:21:27;98662.63;;;3.73;80.20
20987;BME280;10652;50.306;8.570;2023-01-31T10:25:52;98660.91;;;3.72;80.39
20987;BME280;10652;50.306;8.570;2023-01-31T10:29:59;98641.06;;;3.65;80.26
20987;BME280;10652;50.306;8.570;2023-01-31T10:34:11;98655.81;;;3.60;80.52
20987;BME280;10652;50.306;8.570;2023-01-31T10:38:51;98659.38;;;3.53;80.76
20987;BME280;10652;50.306;8.570;2023-01-31T10:43:15;98658.50;;;3.52;81.07
20987;BME280;10652;50.306;8.570;2023-01-31T10:47:27;98656.81;;;3.48;80.58
20987;BME280;10652;50.306;8.570;2023-01-31T11:00:02;98637.75;;;3.49;81.16
20987;BME280;10652;50.306;8.570;2023-01-31T11:04:22;98618.72;;;3.49;81.64
20987;BME280;10652;50.306;8.570;2023-01-31T11:08:47;98605.69;;;3.52;82.10
20987;BME280;10652;50.306;8.570;2023-01-31T11:12:56;98598.66;;;3.63;82.27
20987;BME280;10652;50.306;8.570;2023-01-31T11:21:18;98599.41;;;3.72;81.68
20987;BME280;10652;50.306;8.570;2023-01-31T11:25:22;98579.41;;;3.79;81.80
20987;BME280;10652;50.306;8.570;2023-01-31T11:29:31;98572.41;;;3.90;81.70
20987;BME280;10652;50.306;8.570;2023-01-31T11:33:43;98561.91;;;3.96;80.75
20987;BME280;10652;50.306;8.570;2023-01-31T11:42:04;98541.09;;;3.98;81.00
20987;BME280;10652;50.306;8.570;2023-01-31T11:46:07;98522.00;;;4.00;80.26
20987;BME280;10652;50.306;8.570;2023-01-31T11:54:31;98520.25;;;4.01;80.30
20987;BME280;10652;50.306;8.570;2023-01-31T11:58:37;98541.06;;;4.01;80.02
20987;BME280;10652;50.306;8.570;2023-01-31T12:02:40;98515.00;;;4.05;80.22
20987;BME280;10652;50.306;8.570;2023-01-31T12:07:01;98495.94;;;4.06;79.19
20987;BME280;10652;50.306;8.570;2023-01-31T12:11:26;98494.13;;;4.10;79.86
20987;BME280;10652;50.306;8.570;2023-01-31T12:15:30;98495.81;;;4.15;79.96
20987;BME280;10652;50.306;8.570;2023-01-31T12:19:57;98480.06;;;4.24;80.08
20987;BME280;10652;50.306;8.570;2023-01-31T12:33:08;98460.84;;;4.35;78.55
20987;BME280;10652;50.306;8.570;2023-01-31T12:37:23;98471.28;;;4.32;78.59
20987;BME280;10652;50.306;8.570;2023-01-31T12:41:38;98449.72;;;4.27;78.70
20987;BME280;10652;50.306;8.570;2023-01-31T12:45:56;98453.13;;;4.29;78.82
20987;BME280;10652;50.306;8.570;2023-01-31T12:50:27;98448.78;;;4.31;79.03
20987;BME280;10652;50.306;8.570;2023-01-31T12:54:51;98454.75;;;4.36;79.21
20987;BME280;10652;50.306;8.570;2023-01-31T12:59:22;98438.94;;;4.48;79.40
20987;BME280;10652;50.306;8.570;2023-01-31T13:03:32;98424.94;;;4.55;78.88
20987;BME280;10652;50.306;8.570;2023-01-31T13:07:52;98405.13;;;4.48;79.19
20987;BME280;10652;50.306;8.570;2023-01-31T13:12:05;98390.25;;;4.54;79.98
20987;BME280;10652;50.306;8.570;2023-01-31T13:16:32;98401.44;;;4.61;79.63
20987;BME280;10652;50.306;8.570;2023-01-31T13:20:46;98398.06;;;4.56;79.03
20987;BME280;10652;50.306;8.570;2023-01-31T13:25:16;98404.91;;;4.60;79.43
20987;BME280;10652;50.306;8.570;2023-01-31T13:29:32;98407.44;;;4.64;79.39
20987;BME280;10652;50.306;8.570;2023-01-31T13:33:39;98411.84;;;4.61;79.70
20987;BME280;10652;50.306;8.570;2023-01-31T13:37:43;98395.47;;;4.54;80.79
20987;BME280;10652;50.306;8.570;2023-01-31T13:41:47;98395.44;;;4.56;80.78
20987;BME280;10652;50.306;8.570;2023-01-31T13:45:56;98393.63;;;4.61;82.54
20987;BME280;10652;50.306;8.570;2023-01-31T13:54:23;98396.38;;;4.52;82.56
20987;BME280;10652;50.306;8.570;2023-01-31T13:58:29;98399.16;;;4.41;82.70
20987;BME280;10652;50.306;8.570;2023-01-31T14:02:35;98388.84;;;4.37;84.13
20987;BME280;10652;50.306;8.570;2023-01-31T14:11:48;98382.97;;;4.25;87.59
20987;BME280;10652;50.306;8.570;2023-01-31T14:15:49;98388.25;;;4.19;89.47
20987;BME280;10652;50.306;8.570;2023-01-31T14:24:00;98393.41;;;4.22;91.45
20987;BME280;10652;50.306;8.570;2023-01-31T14:28:02;98391.66;;;4.24;91.65
20987;BME280;10652;50.306;8.570;2023-01-31T14:32:12;98378.56;;;4.31;92.67
20987;BME280;10652;50.306;8.570;2023-01-31T14:40:44;98366.25;;;4.40;93.66
20987;BME280;10652;50.306;8.570;2023-01-31T14:45:13;98363.69;;;4.39;92.39
20987;BME280;10652;50.306;8.570;2023-01-31T14:53:52;98369.91;;;4.30;92.64
20987;BME280;10652;50.306;8.570;2023-01-31T14:58:00;98379.34;;;4.36;93.11
20987;BME280;10652;50.306;8.570;2023-01-31T15:02:39;98362.03;;;4.35;93.12
20987;BME280;10652;50.306;8.570;2023-01-31T15:06:48;98354.94;;;4.41;93.29
20987;BME280;10652;50.306;8.570;2023-01-31T15:11:06;98363.53;;;4.46;92.48
20987;BME280;10652;50.306;8.570;2023-01-31T15:15:32;98353.97;;;4.48;92.99
20987;BME280;10652;50.306;8.570;2023-01-31T15:19:50;98371.25;;;4.52;92.64
20987;BME280;10652;50.306;8.570;2023-01-31T15:23:54;98368.63;;;4.54;92.87
20987;BME280;10652;50.306;8.570;2023-01-31T15:27:58;98382.50;;;4.53;92.88
20987;BME280;10652;50.306;8.570;2023-01-31T15:32:07;98390.34;;;4.50;92.36
20987;BME280;10652;50.306;8.570;2023-01-31T15:36:41;98385.97;;;4.52;92.54
20987;BME280;10652;50.306;8.570;2023-01-31T15:40:44;98374.72;;;4.51;91.90
20987;BME280;10652;50.306;8.570;2023-01-31T15:44:46;98373.84;;;4.51;92.22
20987;BME280;10652;50.306;8.570;2023-01-31T15:48:48;98364.31;;;4.50;92.27
20987;BME280;10652;50.306;8.570;2023-01-31T15:52:53;98372.25;;;4.44;92.61
20987;BME280;10652;50.306;8.570;2023-01-31T15:56:56;98368.00;;;4.40;92.50
20987;BME280;10652;50.306;8.570;2023-01-31T16:00:59;98386.25;;;4.37;92.95
20987;BME280;10652;50.306;8.570;2023-01-31T16:05:06;98381.09;;;4.35;93.10
20987;BME280;10652;50.306;8.570;2023-01-31T16:09:25;98381.16;;;4.31;93.16
20987;BME280;10652;50.306;8.570;2023-01-31T16:13:28;98395.94;;;4.27;93.65
20987;BME280;10652;50.306;8.570;2023-01-31T16:17:31;98392.50;;;4.27;93.95
20987;BME280;10652;50.306;8.570;2023-01-31T16:21:44;98388.19;;;4.25;94.02
20987;BME280;10652;50.306;8.570;2023-01-31T16:25:57;98387.31;;;4.25;94.49
20987;BME280;10652;50.306;8.570;2023-01-31T16:30:02;98392.38;;;4.33;96.04
20987;BME280;10652;50.306;8.570;2023-01-31T16:34:19;98382.81;;;4.35;95.49
20987;BME280;10652;50.306;8.570;2023-01-31T16:38:25;98377.66;;;4.32;95.81
20987;BME280;10652;50.306;8.570;2023-01-31T16:42:28;98393.31;;;4.29;96.37
20987;BME280;10652;50.306;8.570;2023-01-31T16:46:39;98389.84;;;4.30;97.43
20987;BME280;10652;50.306;8.570;2023-01-31T16:50:42;98395.81;;;4.35;98.04
20987;BME280;10652;50.306;8.570;2023-01-31T16:54:49;98399.22;;;4.40;97.15
20987;BME280;10652;50.306;8.570;2023-01-31T16:58:56;98400.97;;;4.38;97.11
20987;BME280;10652;50.306;8.570;2023-01-31T17:02:59;98390.66;;;4.32;97.41
20987;BME280;10652;50.306;8.570;2023-01-31T17:07:05;98401.91;;;4.34;98.35
20987;BME280;10652;50.306;8.570;2023-01-31T17:11:10;98389.75;;;4.34;99.44
20987;BME280;10652;50.306;8.570;2023-01-31T17:15:24;98391.50;;;4.35;99.93
20987;BME280;10652;50.306;8.570;2023-01-31T17:19:26;98402.63;;;4.43;100.00
20987;BME280;10652;50.306;8.570;2023-01-31T17:23:30;98384.41;;;4.42;99.74
20987;BME280;10652;50.306;8.570;2023-01-31T17:27:32;98407.03;;;4.37;99.24
20987;BME280;10652;50.306;8.570;2023-01-31T17:31:34;98389.84;;;4.30;99.50
20987;BME280;10652;50.306;8.570;2023-01-31T17:35:43;98391.56;;;4.31;99.40
20987;BME280;10652;50.306;8.570;2023-01-31T17:39:45;98389.84;;;4.30;100.00
20987;BME280;10652;50.306;8.570;2023-01-31T17:43:47;98397.56;;;4.34;99.71
20987;BME280;10652;50.306;8.570;2023-01-31T17:47:49;98393.31;;;4.29;99.65
20987;BME280;10652;50.306;8.570;2023-01-31T17:51:51;98393.31;;;4.29;100.00
20987;BME280;10652;50.306;8.570;2023-01-31T17:55:53;98395.09;;;4.27;99.96
20987;BME280;10652;50.306;8.570;2023-01-31T17:59:55;98386.50;;;4.21;99.66
20987;BME280;10652;50.306;8.570;2023-01-31T18:03:57;98389.19;;;4.17;100.00
20987;BME280;10652;50.306;8.570;2023-01-31T18:08:01;98402.19;;;4.15;100.00
20987;BME280;10652;50.306;8.570;2023-01-31T18:12:03;98397.69;;;4.27;100.00
20987;BME280;10652;50.306;8.570;2023-01-31T18:16:11;98407.16;;;4.31;100.00
20987;BME280;10652;50.306;8.570;2023-01-31T18:20:13;98399.28;;;4.35;100.00
20987;BME280;10652;50.306;8.570;2023-01-31T18:24:15;98381.03;;;4.37;100.00
20987;BME280;10652;50.306;8.570;2023-01-31T18:28:17;98388.06;;;4.32;100.00
20987;BME280;10652;50.306;8.570;2023-01-31T18:32:19;98391.59;;;4.28;100.00
20987;BME280;10652;50.306;8.570;2023-01-31T18:36:21;98409.84;;;4.26;100.00
20987;BME280;10652;50.306;8.570;2023-01-31T18:40:23;98408.19;;;4.22;100.00
20987;BME280;10652;50.306;8.570;2023-01-31T18:44:25;98396.91;;;4.21;100.00
20987;BME280;10652;50.306;8.570;2023-01-31T18:48:31;98407.34;;;4.18;100.00
20987;BME280;10652;50.306;8.570;2023-01-31T18:52:33;98421.25;;;4.17;100.00
20987;BME280;10652;50.306;8.570;2023-01-31T18:56:36;98410.88;;;4.14;100.00
20987;BME280;10652;50.306;8.570;2023-01-31T19:00:38;98403.13;;;4.13;100.00
20987;BME280;10652;50.306;8.570;2023-01-31T19:04:40;98408.31;;;4.13;100.00
20987;BME280;10652;50.306;8.570;2023-01-31T19:08:47;98415.22;;;4.14;100.00
20987;BME280;10652;50.306;8.570;2023-01-31T19:12:49;98409.16;;;4.13;100.00
20987;BME280;10652;50.306;8.570;2023-01-31T19:16:51;98401.28;;;4.18;100.00
20987;BME280;10652;50.306;8.570;2023-01-31T19:20:53;98403.81;;;4.22;100.00
20987;BME280;10652;50.306;8.570;2023-01-31T19:24:56;98397.72;;;4.23;100.00
20987;BME280;10652;50.306;8.570;2023-01-31T19:28:59;98403.00;;;4.20;100.00
20987;BME280;10652;50.306;8.570;2023-01-31T19:33:01;98398.75;;;4.13;100.00
20987;BME280;10652;50.306;8.570;2023-01-31T19:37:03;98401.41;;;4.10;100.00
20987;BME280;10652;50.306;8.570;2023-01-31T19:41:13;98398.72;;;4.16;100.00
20987;BME280;10652;50.306;8.570;2023-01-31T19:45:16;98389.13;;;4.21;100.00
20987;BME280;10652;50.306;8.570;2023-01-31T19:49:23;98394.25;;;4.24;100.00
20987;BME280;10652;50.306;8.570;2023-01-31T19:53:25;98403.72;;;4.29;100.00
20987;BME280;10652;50.306;8.570;2023-01-31T19:57:27;98408.03;;;4.30;100.00
20987;BME280;10652;50.306;8.570;2023-01-31T20:01:29;98395.84;;;4.32;100.00
20987;BME280;10652;50.306;8.570;2023-01-31T20:05:32;98400.19;;;4.33;100.00
20987;BME280;10652;50.306;8.570;2023-01-31T20:09:34;98400.19;;;4.33;100.00
20987;BME280;10652;50.306;8.570;2023-01-31T20:13:36;98415.75;;;4.36;100.00
20987;BME280;10652;50.306;8.570;2023-01-31T20:17:38;98412.25;;;4.37;100.00
20987;BME280;10652;50.306;8.570;2023-01-31T20:21:40;98405.22;;;4.42;100.00
20987;BME280;10652;50.306;8.570;2023-01-31T20:25:42;98414.75;;;4.43;100.00
20987;BME280;10652;50.306;8.570;2023-01-31T20:29:44;98424.31;;;4.41;99.62
20987;BME280;10652;50.306;8.570;2023-01-31T20:33:46;98427.75;;;4.43;99.80
20987;BME280;10652;50.306;8.570;2023-01-31T20:37:48;98419.97;;;4.41;100.00
20987;BME280;10652;50.306;8.570;2023-01-31T20:41:50;98433.03;;;4.40;100.00
20987;BME280;10652;50.306;8.570;2023-01-31T20:46:00;98426.16;;;4.36;100.00
20987;BME280;10652;50.306;8.570;2023-01-31T20:50:02;98438.41;;;4.28;100.00
20987;BME280;10652;50.306;8.570;2023-01-31T20:54:05;98425.50;;;4.21;100.00
20987;BME280;10652;50.306;8.570;2023-01-31T20:58:07;98436.84;;;4.17;100.00
20987;BME280;10652;50.306;8.570;2023-01-31T21:02:10;98425.66;;;4.12;100.00
20987;BME280;10652;50.306;8.570;2023-01-31T21:06:12;98427.41;;;4.10;100.00
20987;BME280;10652;50.306;8.570;2023-01-31T21:10:14;98425.63;;;4.14;100.00
20987;BME280;10652;50.306;8.570;2023-01-31T21:14:16;98436.78;;;4.20;100.00
20987;BME280;10652;50.306;8.570;2023-01-31T21:18:18;98429.81;;;4.75;100.00
20987;BME280;10652;50.306;8.570;2023-01-31T21:22:21;98428.72;;;4.86;100.00
20987;BME280;10652;50.306;8.570;2023-01-31T21:26:23;98430.03;;;4.62;100.00
20987;BME280;10652;50.306;8.570;2023-01-31T21:30:28;98411.31;;;4.41;98.70
20987;BME280;10652;50.306;8.570;2023-01-31T21:34:30;98398.56;;;4.25;99.02
20987;BME280;10652;50.306;8.570;2023-01-31T21:38:32;98395.25;;;4.17;99.70
20987;BME280;10652;50.306;8.570;2023-01-31T21:42:34;98391.09;;;4.06;99.15
20987;BME280;10652;50.306;8.570;2023-01-31T21:46:36;98407.84;;;3.85;99.40
20987;BME280;10652;50.306;8.570;2023-01-31T21:50:38;98400.31;;;3.67;99.96
20987;BME280;10652;50.306;8.570;2023-01-31T21:54:40;98398.66;;;3.61;100.00
20987;BME280;10652;50.306;8.570;2023-01-31T21:58:42;98401.13;;;3.69;100.00
20987;BME280;10652;50.306;8.570;2023-01-31T22:02:50;98392.38;;;3.76;100.00
20987;BME280;10652;50.306;8.570;2023-01-31T22:06:52;98391.41;;;3.83;100.00
20987;BME280;10652;50.306;8.570;2023-01-31T22:11:04;98375.00;;;3.81;100.00
20987;BME280;10652;50.306;8.570;2023-01-31T22:15:07;98366.34;;;3.77;100.00
20987;BME280;10652;50.306;8.570;2023-01-31T22:19:11;98376.78;;;3.76;100.00
20987;BME280;10652;50.306;8.570;2023-01-31T22:23:13;98373.41;;;3.68;100.00
20987;BME280;10652;50.306;8.570;2023-01-31T22:27:15;98370.06;;;3.61;100.00
20987;BME280;10652;50.306;8.570;2023-01-31T22:31:18;98364.09;;;3.55;100.00
20987;BME280;10652;50.306;8.570;2023-01-31T22:35:20;98373.59;;;3.57;100.00
20987;BME280;10652;50.306;8.570;2023-01-31T22:39:22;98371.81;;;3.61;100.00
20987;BME280;10652;50.306;8.570;2023-01-31T22:43:24;98383.91;;;3.62;100.00
20987;BME280;10652;50.306;8.570;2023-01-31T22:47:26;98371.69;;;3.70;100.00
20987;BME280;10652;50.306;8.570;2023-01-31T22:51:28;98371.47;;;3.82;100.00
20987;BME280;10652;50.306;8.570;2023-01-31T22:55:30;98381.00;;;3.83;100.00
20987;BME280;10652;50.306;8.570;2023-01-31T22:59:32;98373.16;;;3.89;100.00
20987;BME280;10652;50.306;8.570;2023-01-31T23:03:35;98353.97;;;3.96;100.00
20987;BME280;10652;50.306;8.570;2023-01-31T23:07:37;98352.22;;;3.98;100.00
20987;BME280;10652;50.306;8.570;2023-01-31T23:11:39;98356.63;;;3.93;99.87
20987;BME280;10652;50.306;8.570;2023-01-31T23:15:41;98347.16;;;3.86;99.60
20987;BME280;10652;50.306;8.570;2023-01-31T23:19:43;98344.63;;;3.81;99.33
20987;BME280;10652;50.306;8.570;2023-01-31T23:23:45;98343.03;;;3.73;99.58
20987;BME280;10652;50.306;8.570;2023-01-31T23:27:47;98346.69;;;3.63;99.50